Time;durP1;ratioP1;P1;durP2;ratioP2;P2;SDS_P1;SDS_P2;PMS_P1;PMS_P2;Temp;Humidity;BMP_temperature;BMP_pressure;BME280_temperature;BME280_humidity;BME280_pressure;Samples;Min_cycle;Max_cycle;Signal;HPM_P1;HPM_P2
2023/10/24 00:02:00;;;;;;;;;;;;;;;7.01;100.00;100337.86;107513;279;114610;-57
2023/10/24 00:04:38;;;;;;;;;;;;;;;6.95;100.00;100336.23;107510;279;95247;-57
2023/10/24 00:07:12;;;;;;;;;;;;;;;6.92;100.00;100335.55;107501;279;96639;-56
2023/10/24 00:09:49;;;;;;;;;;;;;;;6.91;100.00;100330.98;107469;279;120567;-53
2023/10/24 00:12:29;;;;;;;;;;;;;;;6.85;100.00;100333.90;107512;279;105761;-53
2023/10/24 00:15:07;;;;;;;;;;;;;;;6.82;100.00;100337.86;107425;279;114101;-53
2023/10/24 00:17:43;;;;;;;;;;;;;;;6.81;100.00;100339.08;107490;279;95802;-54
2023/10/24 00:20:23;;;;;;;;;;;;;;;6.76;100.00;100339.63;107447;279;97109;-53
2023/10/24 00:22:57;;;;;;;;;;;;;;;6.76;100.00;100340.87;107449;279;119985;-56
2023/10/24 00:25:33;;;;;;;;;;;;;;;6.78;100.00;100337.89;107407;279;105636;-56
2023/10/24 00:28:13;;;;;;;;;;;;;;;6.81;100.00;100336.39;107449;279;113186;-58
2023/10/24 00:30:52;;;;;;;;;;;;;;;6.78;100.00;100337.55;107403;279;96501;-58
2023/10/24 00:33:27;;;;;;;;;;;;;;;6.82;100.00;100338.09;107508;279;96495;-52
2023/10/24 00:36:07;;;;;;;;;;;;;;;6.86;100.00;100335.04;107467;279;120488;-53
2023/10/24 00:38:49;;;;;;;;;;;;;;;6.93;100.00;100331.63;107506;279;105696;-55
2023/10/24 00:41:30;;;;;;;;;;;;;;;7.02;100.00;100334.94;107487;279;113959;-56
2023/10/24 00:44:09;;;;;;;;;;;;;;;7.08;100.00;100336.55;107522;279;95922;-52
2023/10/24 00:46:47;;;;;;;;;;;;;;;7.14;100.00;100341.12;107515;279;98299;-53
2023/10/24 00:49:26;;;;;;;;;;;;;;;7.19;100.00;100336.95;107511;279;119418;-57
2023/10/24 00:52:01;;;;;;;;;;;;;;;7.26;100.00;100336.77;107501;279;105127;-57
2023/10/24 00:54:42;;;;;;;;;;;;;;;7.33;100.00;100339.02;107438;279;114378;-56
2023/10/24 00:57:17;;;;;;;;;;;;;;;7.38;100.00;100347.92;107452;279;96630;-56
2023/10/24 00:59:50;;;;;;;;;;;;;;;7.42;100.00;100343.91;107465;279;97571;-54
2023/10/24 01:02:31;;;;;;;;;;;;;;;7.46;100.00;100342.11;107446;279;119927;-52
2023/10/24 01:05:07;;;;;;;;;;;;;;;7.51;100.00;100346.81;107411;279;104749;-58
2023/10/24 01:07:43;;;;;;;;;;;;;;;7.54;100.00;100344.46;107458;279;115550;-55
2023/10/24 01:10:17;;;;;;;;;;;;;;;7.58;100.00;100338.88;107427;279;96087;-56
2023/10/24 01:12:54;;;;;;;;;;;;;;;7.60;100.00;100338.07;107466;279;97127;-53
2023/10/24 01:15:26;;;;;;;;;;;;;;;7.59;100.00;100340.12;107455;279;121324;-53
2023/10/24 01:18:03;;;;;;;;;;;;;;;7.55;100.00;100336.83;107481;279;104816;-57
2023/10/24 01:20:40;;;;;;;;;;;;;;;7.57;100.00;100334.84;107473;279;114546;-57
2023/10/24 01:23:20;;;;;;;;;;;;;;;7.57;100.00;100336.67;107511;279;96161;-57
2023/10/24 01:25:56;;;;;;;;;;;;;;;7.52;100.00;100336.48;107518;279;97027;-56
2023/10/24 01:28:30;;;;;;;;;;;;;;;7.46;100.00;100342.66;107498;279;120960;-56
2023/10/24 01:31:07;;;;;;;;;;;;;;;7.41;100.00;100340.02;107434;279;105479;-55
2023/10/24 01:33:45;;;;;;;;;;;;;;;7.37;100.00;100340.71;107456;279;114701;-57
2023/10/24 01:36:22;;;;;;;;;;;;;;;7.33;100.00;100336.52;107421;279;97362;-57
2023/10/24 01:38:59;;;;;;;;;;;;;;;7.32;100.00;100334.86;107492;279;96739;-54
2023/10/24 01:41:35;;;;;;;;;;;;;;;7.34;100.00;100332.10;107468;279;120555;-53
2023/10/24 01:44:10;;;;;;;;;;;;;;;7.36;100.00;100327.34;107483;279;104429;-54
2023/10/24 01:46:46;;;;;;;;;;;;;;;7.41;100.00;100329.14;107407;279;114079;-54
2023/10/24 01:49:22;;;;;;;;;;;;;;;7.48;100.00;100319.33;107413;279;97309;-54
2023/10/24 01:51:58;;;;;;;;;;;;;;;7.55;100.00;100319.59;107404;279;98071;-53
2023/10/24 01:54:41;;;;;;;;;;;;;;;7.60;100.00;100316.69;107457;279;119827;-51
2023/10/24 01:57:18;;;;;;;;;;;;;;;7.66;100.00;100316.23;107465;279;104917;-52
2023/10/24 01:59:58;;;;;;;;;;;;;;;7.71;100.00;100309.40;107475;279;114563;-53
2023/10/24 02:02:40;;;;;;;;;;;;;;;7.73;100.00;100314.37;107508;279;95921;-56
2023/10/24 02:05:20;;;;;;;;;;;;;;;7.79;100.00;100308.91;107418;279;98255;-57
2023/10/24 02:08:00;;;;;;;;;;;;;;;7.81;100.00;100314.52;107414;279;121372;-51
2023/10/24 02:10:39;;;;;;;;;;;;;;;7.83;100.00;100314.52;107435;279;104820;-52
2023/10/24 02:13:16;;;;;;;;;;;;;;;7.85;100.00;100311.41;107475;279;113990;-54
2023/10/24 02:15:56;;;;;;;;;;;;;;;7.85;100.00;100310.73;107455;279;97389;-53
2023/10/24 02:18:29;;;;;;;;;;;;;;;7.81;100.00;100311.48;107548;279;97998;-54
2023/10/24 02:21:08;;;;;;;;;;;;;;;7.76;100.00;100314.10;107499;279;119801;-53
2023/10/24 02:23:42;;;;;;;;;;;;;;;7.74;100.00;100310.52;107563;279;105670;-53
2023/10/24 02:26:28;;;;;;;;;;;;;;;7.74;100.00;100310.71;107474;279;115250;-52
2023/10/24 02:29:05;;;;;;;;;;;;;;;7.74;100.00;100313.90;107482;279;97026;-55
2023/10/24 02:31:39;;;;;;;;;;;;;;;7.69;100.00;100310.02;107432;279;97959;-55
2023/10/24 02:34:17;;;;;;;;;;;;;;;7.70;100.00;100310.08;107430;279;121050;-53
2023/10/24 02:36:54;;;;;;;;;;;;;;;7.70;100.00;100313.74;107438;279;105854;-53
2023/10/24 02:39:36;;;;;;;;;;;;;;;7.73;100.00;100316.55;107448;279;114565;-56
2023/10/24 02:42:11;;;;;;;;;;;;;;;7.78;100.00;100313.85;107451;279;95924;-57
2023/10/24 02:44:51;;;;;;;;;;;;;;;7.85;100.00;100312.64;107494;279;96573;-57
2023/10/24 02:47:30;;;;;;;;;;;;;;;7.92;100.00;100316.55;107465;279;121245;-57
2023/10/24 02:50:07;;;;;;;;;;;;;;;7.99;100.00;100319.73;107044;279;529214;-52
2023/10/24 02:52:40;;;;;;;;;;;;;;;8.09;100.00;100315.10;107484;279;113130;-52
2023/10/24 02:55:19;;;;;;;;;;;;;;;8.14;100.00;100315.61;107489;279;97657;-52
2023/10/24 02:58:01;;;;;;;;;;;;;;;8.20;100.00;100313.63;107435;279;97721;-55
2023/10/24 03:00:36;;;;;;;;;;;;;;;8.25;100.00;100310.14;107496;279;121846;-56
2023/10/24 03:03:15;;;;;;;;;;;;;;;8.30;100.00;100312.09;107482;279;104573;-56
2023/10/24 03:05:50;;;;;;;;;;;;;;;8.32;100.00;100309.20;107441;279;113882;-57
2023/10/24 03:08:28;;;;;;;;;;;;;;;8.38;100.00;100308.35;107489;279;97119;-57
2023/10/24 03:11:05;;;;;;;;;;;;;;;8.44;100.00;100305.33;107456;279;97910;-57
2023/10/24 03:13:40;;;;;;;;;;;;;;;8.46;100.00;100305.39;107440;279;120944;-57
2023/10/24 03:16:19;;;;;;;;;;;;;;;8.48;100.00;100300.54;107423;279;105130;-57
2023/10/24 03:18:59;;;;;;;;;;;;;;;8.55;100.00;100296.29;107448;279;114249;-51
2023/10/24 03:21:35;;;;;;;;;;;;;;;8.60;100.00;100294.75;107430;279;95969;-52
2023/10/24 03:24:12;;;;;;;;;;;;;;;8.65;100.00;100292.23;107485;279;97401;-58
2023/10/24 03:26:51;;;;;;;;;;;;;;;8.67;100.00;100287.11;107419;279;120783;-57
2023/10/24 03:29:29;;;;;;;;;;;;;;;8.74;100.00;100289.16;107430;279;105489;-53
2023/10/24 03:32:05;;;;;;;;;;;;;;;8.81;100.00;100294.72;107413;279;114592;-54
2023/10/24 03:34:41;;;;;;;;;;;;;;;8.82;100.00;100293.36;107453;279;96441;-56
2023/10/24 03:37:17;;;;;;;;;;;;;;;8.83;100.00;100290.69;107449;279;97226;-56
2023/10/24 03:39:52;;;;;;;;;;;;;;;8.85;100.00;100291.38;107429;279;119334;-52
2023/10/24 03:42:35;;;;;;;;;;;;;;;8.89;100.00;100289.54;107505;279;105348;-53
2023/10/24 03:45:08;;;;;;;;;;;;;;;8.92;100.00;100285.20;107479;279;113672;-53
2023/10/24 03:47:50;;;;;;;;;;;;;;;8.96;100.00;100281.02;107453;279;95631;-53
2023/10/24 03:50:25;;;;;;;;;;;;;;;9.07;100.00;100286.65;107509;279;98380;-52
2023/10/24 03:53:00;;;;;;;;;;;;;;;9.10;100.00;100279.84;107449;279;121222;-54
2023/10/24 03:55:37;;;;;;;;;;;;;;;9.14;100.00;100281.91;107360;279;105719;-52
2023/10/24 03:58:13;;;;;;;;;;;;;;;9.17;100.00;100276.15;107414;271;113891;-52
2023/10/24 04:00:52;;;;;;;;;;;;;;;9.17;100.00;100267.90;107417;279;95924;-52
2023/10/24 04:03:32;;;;;;;;;;;;;;;9.18;100.00;100263.78;107367;279;96714;-52
2023/10/24 04:06:18;;;;;;;;;;;;;;;9.20;100.00;100259.74;107355;279;122197;-52
2023/10/24 04:08:54;;;;;;;;;;;;;;;9.14;100.00;100264.63;107405;279;105549;-52
2023/10/24 04:11:30;;;;;;;;;;;;;;;9.07;100.00;100265.13;107427;279;114245;-53
2023/10/24 04:14:07;;;;;;;;;;;;;;;8.98;100.00;100256.56;107474;279;96461;-56
2023/10/24 04:16:50;;;;;;;;;;;;;;;8.90;100.00;100251.34;107470;279;97567;-56
2023/10/24 04:19:27;;;;;;;;;;;;;;;8.86;100.00;100237.98;107458;279;120587;-54
2023/10/24 04:22:04;;;;;;;;;;;;;;;8.81;100.00;100234.28;107445;279;105933;-53
2023/10/24 04:24:40;;;;;;;;;;;;;;;8.74;100.00;100227.09;107469;279;114669;-55
2023/10/24 04:27:16;;;;;;;;;;;;;;;8.66;100.00;100228.93;107455;279;97290;-55
2023/10/24 04:29:54;;;;;;;;;;;;;;;8.66;100.00;100231.98;107496;280;97585;-56
2023/10/24 04:32:30;;;;;;;;;;;;;;;8.62;100.00;100230.85;107527;279;120806;-56
2023/10/24 04:35:07;;;;;;;;;;;;;;;8.50;100.00;100225.67;107468;279;105457;-55
2023/10/24 04:37:46;;;;;;;;;;;;;;;8.44;100.00;100227.05;107507;279;114284;-54
2023/10/24 04:40:24;;;;;;;;;;;;;;;8.42;100.00;100226.97;107468;280;94663;-54
2023/10/24 04:43:00;;;;;;;;;;;;;;;8.41;100.00;100229.19;107422;279;97741;-56
2023/10/24 04:45:37;;;;;;;;;;;;;;;8.37;100.00;100232.17;107471;279;119869;-57
2023/10/24 04:48:10;;;;;;;;;;;;;;;8.32;100.00;100239.39;107501;279;105760;-53
2023/10/24 04:50:50;;;;;;;;;;;;;;;8.28;100.00;100237.73;107412;279;115981;-53
2023/10/24 04:53:30;;;;;;;;;;;;;;;8.26;100.00;100243.98;107415;279;96086;-56
2023/10/24 04:56:06;;;;;;;;;;;;;;;8.24;100.00;100248.73;107424;279;97987;-57
2023/10/24 04:58:47;;;;;;;;;;;;;;;8.23;100.00;100247.72;107469;279;120312;-53
2023/10/24 05:01:23;;;;;;;;;;;;;;;8.21;100.00;100252.52;107470;279;104733;-53
2023/10/24 05:04:03;;;;;;;;;;;;;;;8.18;100.00;100256.63;107421;279;114595;-57
2023/10/24 05:06:45;;;;;;;;;;;;;;;8.17;100.00;100264.10;107427;279;95727;-57
2023/10/24 05:09:25;;;;;;;;;;;;;;;8.15;100.00;100268.59;107489;279;97274;-56
2023/10/24 05:12:07;;;;;;;;;;;;;;;8.12;100.00;100267.36;107399;279;120612;-56
2023/10/24 05:14:48;;;;;;;;;;;;;;;8.11;100.00;100268.05;107543;280;105046;-54
2023/10/24 05:17:30;;;;;;;;;;;;;;;8.11;100.00;100275.97;107492;279;114776;-53
2023/10/24 05:20:07;;;;;;;;;;;;;;;8.10;100.00;100279.57;107489;279;95630;-57
2023/10/24 05:22:41;;;;;;;;;;;;;;;8.10;100.00;100281.83;107568;279;96695;-54
2023/10/24 05:25:15;;;;;;;;;;;;;;;8.07;100.00;100283.39;107506;279;121229;-54
2023/10/24 05:27:51;;;;;;;;;;;;;;;8.08;100.00;100283.65;107507;279;105867;-58
2023/10/24 05:30:25;;;;;;;;;;;;;;;8.05;100.00;100287.94;107467;279;114486;-58
2023/10/24 05:33:00;;;;;;;;;;;;;;;8.04;100.00;100284.95;107473;279;96918;-52
2023/10/24 05:35:35;;;;;;;;;;;;;;;8.04;100.00;100289.16;107460;279;98224;-53
2023/10/24 05:38:11;;;;;;;;;;;;;;;8.04;100.00;100294.84;107462;279;120424;-55
2023/10/24 05:40:49;;;;;;;;;;;;;;;8.05;100.00;100303.17;107445;279;104994;-56
2023/10/24 05:43:23;;;;;;;;;;;;;;;8.08;100.00;100297.78;107482;279;114303;-57
2023/10/24 05:46:05;;;;;;;;;;;;;;;8.07;100.00;100292.34;107394;279;96011;-55
2023/10/24 05:48:39;;;;;;;;;;;;;;;8.06;100.00;100296.78;107510;279;96919;-55
2023/10/24 05:51:29;;;;;;;;;;;;;;;8.07;100.00;100309.40;107452;279;121707;-56
2023/10/24 05:54:06;;;;;;;;;;;;;;;8.13;100.00;100316.89;107449;279;105854;-56
2023/10/24 05:56:41;;;;;;;;;;;;;;;8.15;100.00;100318.13;107391;279;115918;-55
2023/10/24 05:59:14;;;;;;;;;;;;;;;8.19;100.00;100318.96;107491;279;97039;-52
2023/10/24 06:01:49;;;;;;;;;;;;;;;8.22;100.00;100314.97;107515;279;97149;-53
2023/10/24 06:04:25;;;;;;;;;;;;;;;8.28;100.00;100312.10;107518;279;120081;-57
2023/10/24 06:07:03;;;;;;;;;;;;;;;8.37;100.00;100310.78;107522;279;106290;-56
2023/10/24 06:09:40;;;;;;;;;;;;;;;8.40;100.00;100311.08;107442;279;113830;-57
2023/10/24 06:12:15;;;;;;;;;;;;;;;8.44;100.00;100312.63;107429;279;97329;-57
2023/10/24 06:14:52;;;;;;;;;;;;;;;8.48;100.00;100311.31;107505;279;97950;-53
2023/10/24 06:17:28;;;;;;;;;;;;;;;8.51;100.00;100311.84;107432;279;120201;-53
2023/10/24 06:20:00;;;;;;;;;;;;;;;8.53;100.00;100303.64;107449;279;104250;-52
2023/10/24 06:22:45;;;;;;;;;;;;;;;8.59;100.00;100299.39;107453;279;112918;-53
2023/10/24 06:25:22;;;;;;;;;;;;;;;8.62;100.00;100295.10;107465;279;96844;-52
2023/10/24 06:28:00;;;;;;;;;;;;;;;8.70;100.00;100288.45;107431;279;96990;-56
2023/10/24 06:30:33;;;;;;;;;;;;;;;8.76;100.00;100283.92;107450;279;120971;-57
2023/10/24 06:33:10;;;;;;;;;;;;;;;8.83;100.00;100282.69;107409;279;105673;-53
2023/10/24 06:35:53;;;;;;;;;;;;;;;8.91;100.00;100279.38;107435;279;114085;-53
2023/10/24 06:38:28;;;;;;;;;;;;;;;9.03;100.00;100276.05;107479;279;97088;-57
2023/10/24 06:41:03;;;;;;;;;;;;;;;9.11;100.00;100275.73;107474;279;96829;-57
2023/10/24 06:43:39;;;;;;;;;;;;;;;9.18;100.00;100270.64;107479;279;119852;-56
2023/10/24 06:46:17;;;;;;;;;;;;;;;9.27;100.00;100268.46;107522;279;105740;-55
2023/10/24 06:48:50;;;;;;;;;;;;;;;9.37;100.00;100267.79;107476;279;114250;-54
2023/10/24 06:51:25;;;;;;;;;;;;;;;9.46;100.00;100265.23;107481;279;97792;-54
2023/10/24 06:54:01;;;;;;;;;;;;;;;9.50;100.00;100259.16;107495;279;98615;-58
2023/10/24 06:56:39;;;;;;;;;;;;;;;9.62;100.00;100262.92;107493;279;120602;-57
2023/10/24 06:59:12;;;;;;;;;;;;;;;9.68;100.00;100263.89;107403;279;107555;-57
2023/10/24 07:01:45;;;;;;;;;;;;;;;9.73;100.00;100263.83;107388;279;112960;-56
2023/10/24 07:04:21;;;;;;;;;;;;;;;9.77;100.00;100266.00;107455;279;95213;-54
2023/10/24 07:06:57;;;;;;;;;;;;;;;9.85;100.00;100272.02;107466;279;97003;-54
2023/10/24 07:09:33;;;;;;;;;;;;;;;9.92;100.00;100275.54;107438;279;119604;-54
2023/10/24 07:12:12;;;;;;;;;;;;;;;9.98;100.00;100273.67;107341;279;107713;-54
2023/10/24 07:14:56;;;;;;;;;;;;;;;10.15;100.00;100276.39;107452;279;114505;-58
2023/10/24 07:17:34;;;;;;;;;;;;;;;10.25;100.00;100279.58;107431;279;96350;-57
2023/10/24 07:20:10;;;;;;;;;;;;;;;10.38;100.00;100280.60;107443;279;98150;-58
2023/10/24 07:22:46;;;;;;;;;;;;;;;10.46;100.00;100280.28;107437;279;120191;-57
2023/10/24 07:25:24;;;;;;;;;;;;;;;10.57;100.00;100278.58;107442;279;105250;-58
2023/10/24 07:28:04;;;;;;;;;;;;;;;10.69;100.00;100279.56;107512;279;115115;-54
2023/10/24 07:30:43;;;;;;;;;;;;;;;10.79;100.00;100276.50;107468;279;96674;-52
2023/10/24 07:33:19;;;;;;;;;;;;;;;10.88;100.00;100273.09;107485;279;95234;-54
2023/10/24 07:35:54;;;;;;;;;;;;;;;10.98;100.00;100273.80;107463;279;120404;-54
2023/10/24 07:38:33;;;;;;;;;;;;;;;11.02;100.00;100274.75;107444;279;105650;-56
2023/10/24 07:41:10;;;;;;;;;;;;;;;11.17;100.00;100274.79;107472;279;113135;-57
2023/10/24 07:43:46;;;;;;;;;;;;;;;11.28;100.00;100280.29;107493;279;97269;-54
2023/10/24 07:46:20;;;;;;;;;;;;;;;11.37;100.00;100286.47;107460;279;97575;-54
2023/10/24 07:48:58;;;;;;;;;;;;;;;11.48;100.00;100284.67;107505;279;121017;-53
2023/10/24 07:51:36;;;;;;;;;;;;;;;11.59;100.00;100283.95;107483;279;105789;-53
2023/10/24 07:54:10;;;;;;;;;;;;;;;11.64;100.00;100286.94;107459;279;115196;-58
2023/10/24 07:56:47;;;;;;;;;;;;;;;11.65;100.00;100284.61;107466;279;95685;-57
2023/10/24 07:59:23;;;;;;;;;;;;;;;11.70;100.00;100266.98;107461;279;97470;-57
2023/10/24 08:02:02;;;;;;;;;;;;;;;11.70;100.00;100256.32;107440;279;120854;-57
2023/10/24 08:04:40;;;;;;;;;;;;;;;11.76;100.00;100245.13;107474;279;105803;-54
2023/10/24 08:07:17;;;;;;;;;;;;;;;11.82;100.00;100233.53;107497;279;114457;-54
2023/10/24 08:09:55;;;;;;;;;;;;;;;11.77;100.00;100236.13;107486;279;96861;-54
2023/10/24 08:12:33;;;;;;;;;;;;;;;11.72;100.00;100233.92;107488;279;95311;-53
2023/10/24 08:15:15;;;;;;;;;;;;;;;11.68;100.00;100234.84;107498;279;118616;-58
2023/10/24 08:17:59;;;;;;;;;;;;;;;11.64;100.00;100236.16;107504;279;105447;-53
2023/10/24 08:20:36;;;;;;;;;;;;;;;11.64;100.00;100223.92;107424;279;116238;-54
2023/10/24 08:23:16;;;;;;;;;;;;;;;11.67;100.00;100211.05;107496;279;96812;-59
2023/10/24 08:25:52;;;;;;;;;;;;;;;11.71;100.00;100198.34;107483;279;97828;-58
2023/10/24 08:28:27;;;;;;;;;;;;;;;11.75;100.00;100186.20;107578;279;119830;-53
2023/10/24 08:31:04;;;;;;;;;;;;;;;11.74;100.00;100181.70;107491;279;105297;-53
2023/10/24 08:33:44;;;;;;;;;;;;;;;11.73;100.00;100182.86;107453;279;113383;-55
2023/10/24 08:36:21;;;;;;;;;;;;;;;11.73;100.00;100181.49;107420;279;96281;-53
2023/10/24 08:38:54;;;;;;;;;;;;;;;11.83;100.00;100189.48;107457;279;96979;-54
2023/10/24 08:41:33;;;;;;;;;;;;;;;11.89;100.00;100189.45;107343;279;121268;-53
2023/10/24 08:44:07;;;;;;;;;;;;;;;11.88;100.00;100192.09;107472;279;104682;-58
2023/10/24 08:46:47;;;;;;;;;;;;;;;11.90;100.00;100194.38;107462;279;115568;-57
2023/10/24 08:49:27;;;;;;;;;;;;;;;12.02;100.00;100192.92;107470;279;96289;-55
2023/10/24 08:51:59;;;;;;;;;;;;;;;12.18;100.00;100188.17;107435;279;98197;-54
2023/10/24 08:54:35;;;;;;;;;;;;;;;12.38;100.00;100184.80;107466;279;120724;-57
2023/10/24 08:57:18;;;;;;;;;;;;;;;12.54;100.00;100196.82;107400;279;105198;-55
2023/10/24 09:00:10;;;;;;;;;;;;;;;12.75;100.00;100212.48;107472;279;114238;-53
2023/10/24 09:02:46;;;;;;;;;;;;;;;12.93;100.00;100210.27;107524;279;96138;-58
2023/10/24 09:05:29;;;;;;;;;;;;;;;13.04;100.00;100207.84;107532;279;96767;-58
2023/10/24 09:08:07;;;;;;;;;;;;;;;13.26;100.00;100207.84;107556;279;120844;-55
2023/10/24 09:10:49;;;;;;;;;;;;;;;13.40;100.00;100215.91;107548;279;105668;-56
2023/10/24 09:13:28;;;;;;;;;;;;;;;13.51;100.00;100215.59;107394;279;114001;-53
2023/10/24 09:16:11;;;;;;;;;;;;;;;13.69;100.00;100214.16;107548;279;94673;-55
2023/10/24 09:18:47;;;;;;;;;;;;;;;13.79;100.00;100206.98;107513;279;96348;-59
2023/10/24 09:21:23;;;;;;;;;;;;;;;13.72;99.33;100199.50;107462;279;119832;-59
2023/10/24 09:23:58;;;;;;;;;;;;;;;13.92;99.81;100199.17;107417;279;104743;-58
2023/10/24 09:26:33;;;;;;;;;;;;;;;14.10;99.41;100196.15;107453;279;114267;-58
2023/10/24 09:29:10;;;;;;;;;;;;;;;14.57;99.73;100181.54;107447;279;96502;-54
2023/10/24 09:31:42;;;;;;;;;;;;;;;14.96;98.33;100169.75;107424;279;97547;-54
2023/10/24 09:34:17;;;;;;;;;;;;;;;15.11;97.45;100174.61;107421;279;120481;-54
2023/10/24 09:36:50;;;;;;;;;;;;;;;15.36;97.11;100169.89;107450;279;105507;-54
2023/10/24 09:39:31;;;;;;;;;;;;;;;15.72;97.11;100167.36;107478;279;112589;-53
2023/10/24 09:42:05;;;;;;;;;;;;;;;16.27;96.15;100157.89;107429;279;93965;-54
2023/10/24 09:44:38;;;;;;;;;;;;;;;16.62;94.52;100157.11;107539;279;98100;-58
2023/10/24 09:47:11;;;;;;;;;;;;;;;16.84;94.28;100151.54;107516;279;120620;-58
2023/10/24 09:49:51;;;;;;;;;;;;;;;16.84;93.36;100143.97;107538;279;105561;-58
2023/10/24 09:52:27;;;;;;;;;;;;;;;16.79;92.65;100136.79;107455;279;115555;-58
2023/10/24 09:55:01;;;;;;;;;;;;;;;16.42;89.96;100129.51;107528;279;94857;-55
2023/10/24 09:57:36;;;;;;;;;;;;;;;15.94;90.16;100125.06;107535;279;98188;-56
2023/10/24 10:00:12;;;;;;;;;;;;;;;15.66;90.24;100115.06;107451;279;119141;-58
2023/10/24 10:02:46;;;;;;;;;;;;;;;15.44;90.24;100102.44;107532;279;105990;-57
2023/10/24 10:05:22;;;;;;;;;;;;;;;15.22;88.88;100093.38;107443;279;114587;-57
2023/10/24 10:07:55;;;;;;;;;;;;;;;14.97;89.25;100086.14;107490;279;94929;-58
2023/10/24 10:10:34;;;;;;;;;;;;;;;14.83;89.58;100077.28;107463;279;97140;-58
2023/10/24 10:13:16;;;;;;;;;;;;;;;14.75;89.76;100069.21;107447;279;120162;-58
2023/10/24 10:16:17;;;;;;;;;;;;;;;14.71;90.17;100065.00;107425;279;104752;-58
2023/10/24 10:19:08;;;;;;;;;;;;;;;14.62;90.11;100062.34;107448;279;113384;-58
2023/10/24 10:21:47;;;;;;;;;;;;;;;14.52;90.13;100058.25;107423;279;96988;-58
2023/10/24 10:24:40;;;;;;;;;;;;;;;14.46;90.12;100058.27;107365;279;99189;-58
2023/10/24 10:27:23;;;;;;;;;;;;;;;14.36;89.88;100065.12;107409;279;119678;-56
2023/10/24 10:30:06;;;;;;;;;;;;;;;14.32;89.93;100066.04;107458;279;103508;-57
2023/10/24 10:32:45;;;;;;;;;;;;;;;14.31;89.76;100066.90;107483;279;113245;-56
2023/10/24 10:35:22;;;;;;;;;;;;;;;14.31;89.96;100062.75;107450;279;96903;-58
2023/10/24 10:38:08;;;;;;;;;;;;;;;14.40;90.53;100056.99;107514;279;96681;-54
2023/10/24 10:40:46;;;;;;;;;;;;;;;14.52;90.27;100055.02;107473;279;120190;-53
2023/10/24 10:43:38;;;;;;;;;;;;;;;14.53;90.15;100054.65;107507;279;105357;-54
2023/10/24 10:46:26;;;;;;;;;;;;;;;14.52;88.96;100050.19;107463;279;114678;-55
2023/10/24 10:49:04;;;;;;;;;;;;;;;14.48;89.30;100041.81;107052;279;556015;-57
2023/10/24 10:51:40;;;;;;;;;;;;;;;14.48;88.61;100037.55;107448;279;97757;-58
2023/10/24 10:54:21;;;;;;;;;;;;;;;14.47;88.81;100037.39;107488;279;120442;-58
2023/10/24 10:57:03;;;;;;;;;;;;;;;14.49;88.57;100032.10;107399;279;105543;-58
2023/10/24 10:59:56;;;;;;;;;;;;;;;14.50;88.57;100035.14;107403;279;114569;-54
2023/10/24 11:02:47;;;;;;;;;;;;;;;14.46;88.11;100026.03;107369;279;96626;-55
2023/10/24 11:05:49;;;;;;;;;;;;;;;14.47;88.42;100026.02;107433;279;96760;-53
2023/10/24 11:08:29;;;;;;;;;;;;;;;14.48;87.48;100028.02;107493;279;120463;-57
2023/10/24 11:11:04;;;;;;;;;;;;;;;14.50;87.81;100024.05;107462;279;104298;-57
2023/10/24 11:13:47;;;;;;;;;;;;;;;14.55;88.03;100018.78;107377;279;114370;-55
2023/10/24 11:16:26;;;;;;;;;;;;;;;14.62;88.18;100017.84;107420;279;97225;-55
2023/10/24 11:19:05;;;;;;;;;;;;;;;14.65;87.77;100016.63;107525;279;96645;-53
2023/10/24 11:21:40;;;;;;;;;;;;;;;14.67;87.87;100022.46;107492;279;120029;-54
2023/10/24 11:24:20;;;;;;;;;;;;;;;14.71;87.68;100023.68;107557;279;105470;-54
2023/10/24 11:27:04;;;;;;;;;;;;;;;14.74;87.62;100021.05;107492;279;114884;-53
2023/10/24 11:29:45;;;;;;;;;;;;;;;14.79;87.48;100007.83;107519;279;94766;-56
2023/10/24 11:32:19;;;;;;;;;;;;;;;14.77;87.07;100003.62;107464;279;97212;-57
2023/10/24 11:35:01;;;;;;;;;;;;;;;14.74;87.14;100006.64;107529;279;120990;-54
2023/10/24 11:37:36;;;;;;;;;;;;;;;14.78;87.34;100002.77;107493;279;106515;-58
2023/10/24 11:40:14;;;;;;;;;;;;;;;14.84;87.55;100007.90;107485;279;114279;-57
2023/10/24 11:42:50;;;;;;;;;;;;;;;14.90;87.35;100006.11;107499;279;97468;-54
2023/10/24 11:45:25;;;;;;;;;;;;;;;14.91;87.14;100004.14;107446;279;97927;-53
2023/10/24 11:48:03;;;;;;;;;;;;;;;14.88;86.73;100008.06;107418;279;118872;-54
2023/10/24 11:50:57;;;;;;;;;;;;;;;14.89;86.90;100012.36;107423;279;106661;-54
2023/10/24 11:53:34;;;;;;;;;;;;;;;14.89;86.98;100017.47;107428;279;114440;-57
2023/10/24 11:56:09;;;;;;;;;;;;;;;14.91;86.87;100014.31;107444;279;94273;-58
2023/10/24 11:58:47;;;;;;;;;;;;;;;14.88;86.62;100006.52;107472;279;98145;-56
2023/10/24 12:01:24;;;;;;;;;;;;;;;14.84;86.34;99997.52;107448;279;120749;-58
2023/10/24 12:04:03;;;;;;;;;;;;;;;14.74;86.34;99987.92;107487;279;104524;-54
2023/10/24 12:06:43;;;;;;;;;;;;;;;14.72;86.31;99978.45;107487;279;114726;-54
2023/10/24 12:09:24;;;;;;;;;;;;;;;14.72;86.45;99973.30;107471;279;95367;-55
2023/10/24 12:12:01;;;;;;;;;;;;;;;14.73;86.63;99962.30;107431;279;97718;-54
2023/10/24 12:14:38;;;;;;;;;;;;;;;14.70;86.29;99950.07;107498;279;118492;-58
2023/10/24 12:17:18;;;;;;;;;;;;;;;14.72;85.94;99945.45;107447;279;104943;-58
2023/10/24 12:20:00;;;;;;;;;;;;;;;14.77;86.11;99934.40;107511;279;112946;-58
2023/10/24 12:22:38;;;;;;;;;;;;;;;14.82;85.71;99930.27;107499;279;93119;-56
2023/10/24 12:25:17;;;;;;;;;;;;;;;14.87;85.82;99932.43;107486;279;96241;-56
2023/10/24 12:27:51;;;;;;;;;;;;;;;14.91;85.64;99932.13;107475;279;121490;-58
2023/10/24 12:30:29;;;;;;;;;;;;;;;14.91;85.31;99944.75;107407;279;105082;-57
2023/10/24 12:33:09;;;;;;;;;;;;;;;14.89;85.26;99952.30;107537;279;114414;-54
2023/10/24 12:35:48;;;;;;;;;;;;;;;14.90;85.39;99952.45;107447;279;97236;-53
2023/10/24 12:38:22;;;;;;;;;;;;;;;14.97;85.54;99958.99;107461;279;97304;-53
2023/10/24 12:41:06;;;;;;;;;;;;;;;15.00;85.23;99955.06;107425;279;120397;-53
2023/10/24 12:43:43;;;;;;;;;;;;;;;14.99;84.81;99946.79;107446;279;105214;-57
2023/10/24 12:46:16;;;;;;;;;;;;;;;15.02;85.03;99940.71;107474;279;114517;-56
2023/10/24 12:48:53;;;;;;;;;;;;;;;15.03;84.83;99940.52;107407;279;95691;-54
2023/10/24 12:51:30;;;;;;;;;;;;;;;14.97;84.61;99937.52;107454;279;98114;-55
2023/10/24 12:54:07;;;;;;;;;;;;;;;14.95;84.78;99920.81;107427;279;121128;-53
2023/10/24 12:56:41;;;;;;;;;;;;;;;14.97;84.47;99914.61;107504;278;104162;-54
2023/10/24 12:59:15;;;;;;;;;;;;;;;14.97;84.51;99911.67;107417;279;114100;-54
2023/10/24 13:01:53;;;;;;;;;;;;;;;14.96;84.71;99905.88;107457;279;94433;-53
2023/10/24 13:04:33;;;;;;;;;;;;;;;14.96;84.70;99902.73;107542;279;96507;-56
2023/10/24 13:07:10;;;;;;;;;;;;;;;14.94;84.60;99895.38;107443;279;120939;-56
2023/10/24 13:09:46;;;;;;;;;;;;;;;14.88;84.27;99892.48;107434;279;105573;-53
2023/10/24 13:12:25;;;;;;;;;;;;;;;14.81;84.08;99890.48;107434;279;115935;-53
2023/10/24 13:15:03;;;;;;;;;;;;;;;14.78;83.94;99886.66;107449;279;95731;-59
2023/10/24 13:17:42;;;;;;;;;;;;;;;14.72;83.79;99886.61;107506;279;97469;-57
2023/10/24 13:20:18;;;;;;;;;;;;;;;14.70;84.04;99888.67;107470;279;119943;-61
2023/10/24 13:22:52;;;;;;;;;;;;;;;14.63;84.21;99885.98;107495;279;104334;-53
2023/10/24 13:25:29;;;;;;;;;;;;;;;14.58;84.08;99884.21;107481;279;113370;-53